Latest Coastal Weather Observations for Frederick Reef

IDQ60701

Issued at 4:52 pm EST Saturday 25 June 2016 (issued every 10 minutes, with the page automatically refreshed every 10 minutes)

About coastal observations | Map of coastal stations | Coastal observations for QLD | Marine services | Other Formats
Station Details ID: 200701 Name: FREDERICK REEF Lat: -20.94 Lon: 154.40 Height: 4.9 m
Data from the previous 72 hours. | See also: Recent months for locations in Queensland
Date/Time
EST
Temp
°C
Wind Pressure Rain since
9am
mm
Weather Cloud Vis
km
Sea
Height
m
Swell
Dir  Spd
kts
Gust
kts
hPa Trend Height
m
Period
s
Dir
25/04:30pm 22.6 S 14 18 1015.5 - - - - - - - - -
25/04:00pm 22.9 S 15 19 1015.4 - - - - - - - - -
25/03:30pm 22.7 S 17 21 1015.1 - - - - - - - - -
25/03:00pm 23.1 S 16 20 1015.1 - - - - - - - - -
25/02:30pm 22.8 S 17 20 1014.9 - - - - - - - - -
25/02:00pm 23.0 S 18 21 1014.9 - - - - - - - - -
25/01:30pm 22.8 S 18 21 1015.1 - - - - - - - - -
25/01:00pm 22.8 S 18 22 1015.2 - - - - - - - - -
25/12:30pm 22.9 S 22 25 1015.3 - - - - - - - - -
25/12:00pm 23.0 S 21 25 1015.7 - - - - - - - - -
25/11:30am 23.3 S 23 25 1016.0 - - - - - - - - -
25/11:00am 23.2 S 24 28 1016.0 - - - - - - - - -
25/10:30am 23.5 S 25 28 1016.0 - - - - - - - - -
25/10:00am 23.6 S 23 26 1016.0 - - - - - - - - -
25/09:30am 24.5 S 18 20 1016.2 - - - - - - - - -
25/09:00am 24.7 S 18 20 1016.2 - - - - - - - - -
25/08:30am 24.5 S 19 21 1015.9 - - - - - - - - -
25/08:00am 24.4 S 19 21 1015.7 - - - - - - - - -
25/07:30am 24.5 SSW 18 21 1015.2 - - - - - - - - -
25/07:00am 25.0 SSW 19 21 1015.0 - - - - - - - - -
25/06:30am 25.0 SSW 19 21 1014.6 - - - - - - - - -
25/06:00am 24.9 SSW 18 19 1014.5 - - - - - - - - -
25/05:30am 25.2 SW 15 19 1014.3 - - - - - - - - -
25/05:00am 25.0 SW 16 19 1014.0 - - - - - - - - -
25/04:30am 25.0 WSW 15 16 1013.8 - - - - - - - - -
25/04:00am 25.3 WSW 16 17 1013.6 - - - - - - - - -
25/03:30am 25.2 WSW 15 17 1013.5 - - - - - - - - -
25/03:00am 25.1 W 13 15 1013.6 - - - - - - - - -
25/02:30am 25.0 W 14 15 1013.6 - - - - - - - - -
25/02:00am 25.1 W 12 15 1013.8 - - - - - - - - -
25/01:30am 25.3 WNW 11 13 1013.9 - - - - - - - - -
25/01:00am 25.2 WNW 10 12 1014.2 - - - - - - - - -
25/12:30am 25.1 WNW 8 10 1014.6 - - - - - - - - -
25/12:00am 25.2 WNW 9 11 1014.7 - - - - - - - - -
 
Date/Time
EST
Temp
°C
Wind Pressure Rain since
9am
mm
Weather Cloud Vis
km
Sea
Height
m
Swell
Dir  Spd
kts
Gust
kts
hPa Trend Height
m
Period
s
Dir
24/11:30pm 25.3 WNW 8 10 1014.9 - - - - - - - - -
24/11:00pm 25.3 WNW 9 10 1015.0 - - - - - - - - -
24/10:30pm 25.3 WNW 8 9 1015.2 - - - - - - - - -
24/10:00pm 25.1 WNW 8 9 1015.3 - - - - - - - - -
24/09:30pm 25.2 WNW 8 9 1015.3 - - - - - - - - -
24/09:00pm 25.4 WNW 8 9 1014.9 - - - - - - - - -
24/08:30pm 25.3 WNW 8 9 1015.1 - - - - - - - - -
24/08:00pm 25.2 WNW 8 8 1015.0 - - - - - - - - -
24/07:30pm 25.2 WNW 8 9 1014.6 - - - - - - - - -
24/07:00pm 25.3 WNW 8 9 1014.5 - - - - - - - - -
24/06:30pm 25.3 WNW 8 10 1014.2 - - - - - - - - -
24/06:00pm 25.4 WNW 8 10 1013.9 - - - - - - - - -
24/05:30pm 25.4 NW 8 10 1013.4 - - - - - - - - -
24/05:00pm 25.4 NW 8 9 1013.2 - - - - - - - - -
24/04:30pm 26.4 NNW 7 8 1012.9 - - - - - - - - -
24/04:00pm 26.1 NW 6 8 1012.8 - - - - - - - - -
24/03:30pm 26.5 NNW 8 9 1012.6 - - - - - - - - -
24/03:00pm 26.5 NNW 7 8 1012.5 - - - - - - - - -
24/02:30pm 26.3 NNW 7 9 1012.6 - - - - - - - - -
24/02:00pm 26.2 N 7 8 1012.7 - - - - - - - - -
24/01:30pm 26.0 N 8 9 1012.9 - - - - - - - - -
24/01:00pm 25.9 N 7 8 1013.1 - - - - - - - - -
24/12:30pm 25.8 N 8 9 1013.5 - - - - - - - - -
24/12:00pm 25.8 N 8 9 1013.8 - - - - - - - - -
24/11:30am 25.9 N 7 8 1014.2 - - - - - - - - -
24/11:00am 25.9 N 6 8 1014.6 - - - - - - - - -
24/10:30am 26.0 NNE 9 10 1014.8 - - - - - - - - -
24/10:00am 26.1 NNE 9 11 1014.9 - - - - - - - - -
24/09:30am 26.1 NNE 8 9 1015.0 - - - - - - - - -
24/09:00am 26.0 NNE 9 9 1015.0 - - - - - - - - -
24/08:30am 25.9 NNE 9 10 1015.0 - - - - - - - - -
24/08:00am 25.7 NNE 8 8 1015.0 - - - - - - - - -
24/07:30am 25.4 NNE 9 10 1014.9 - - - - - - - - -
24/07:00am 25.2 N 9 13 1014.8 - - - - - - - - -
24/06:30am 24.8 N 13 14 1014.1 - - - - - - - - -
24/06:00am 24.8 NW 7 9 1014.2 - - - - - - - - -
24/05:30am 24.9 W 5 6 1014.2 - - - - - - - - -
24/05:00am 24.9 W 5 6 1013.9 - - - - - - - - -
24/04:30am 24.8 W 4 5 1013.8 - - - - - - - - -
24/04:00am 24.8 W 4 6 1013.7 - - - - - - - - -
24/03:30am 24.7 W 5 6 1013.6 - - - - - - - - -
24/03:00am 24.9 W 4 5 1013.7 - - - - - - - - -
24/02:30am 24.9 W 5 5 1013.6 - - - - - - - - -
24/02:00am 24.8 W 5 6 1013.5 - - - - - - - - -
24/01:30am 24.8 W 5 6 1013.8 - - - - - - - - -
24/01:00am 24.8 W 2 1 1014.0 - - - - - - - - -
24/12:30am 24.9 W 4 4 1014.1 - - - - - - - - -
24/12:00am 24.9 W 5 6 1013.9 - - - - - - - - -
 
Date/Time
EST
Temp
°C
Wind Pressure Rain since
9am
mm
Weather Cloud Vis
km
Sea
Height
m
Swell
Dir  Spd
kts
Gust
kts
hPa Trend Height
m
Period
s
Dir
23/11:30pm 24.7 W 6 8 1013.9 - - - - - - - - -
23/11:00pm 25.0 WSW 3 11 1014.0 - - - - - - - - -
23/10:30pm 25.0 SSW 7 9 1014.2 - - - - - - - - -
23/10:00pm 24.9 S 9 9 1014.3 - - - - - - - - -
23/09:30pm 24.9 SSE 9 11 1014.2 - - - - - - - - -
23/09:00pm 24.7 S 9 10 1014.2 - - - - - - - - -
23/08:30pm 24.8 S 9 10 1014.1 - - - - - - - - -
23/08:00pm 24.7 S 9 11 1013.9 - - - - - - - - -
23/07:30pm 24.7 SSE 10 11 1013.8 - - - - - - - - -
23/07:00pm 24.8 S 11 12 1013.8 - - - - - - - - -
23/06:30pm 24.8 S 10 12 1013.6 - - - - - - - - -
23/06:00pm 24.8 S 11 12 1013.3 - - - - - - - - -
23/05:30pm 24.6 S 10 11 1013.1 - - - - - - - - -
23/05:00pm 24.6 S 10 12 1012.9 - - - - - - - - -
23/04:30pm 24.6 SSE 11 12 1012.6 - - - - - - - - -
23/04:00pm 24.6 SSE 10 13 1012.4 - - - - - - - - -
23/03:30pm 24.8 SSE 11 13 1012.2 - - - - - - - - -
23/03:00pm 25.1 SSE 10 12 1012.3 - - - - - - - - -
23/02:30pm 24.8 SSE 9 10 1012.5 - - - - - - - - -
23/02:00pm 25.0 S 10 11 1012.6 - - - - - - - - -
23/01:30pm 25.1 S 6 7 1013.0 - - - - - - - - -
23/01:00pm 24.9 SE 7 - 1013.1 - - - - - - - - -
23/12:30pm 25.1 SSE 6 7 1013.5 - - - - - - - - -
23/12:00pm 25.2 SSE 6 7 1013.9 - - - - - - - - -
23/11:30am 25.0 SE 4 5 1014.5 - - - - - - - - -
23/11:00am 24.9 SE 4 7 1014.8 - - - - - - - - -
23/10:30am 24.8 SSE 8 9 1015.2 - - - - - - - - -
23/10:00am 25.0 SE 5 6 1015.6 - - - - - - - - -
23/09:30am 25.2 SE 6 7 1015.8 - - - - - - - - -
23/09:00am 25.3 E 6 8 1015.6 - - - - - - - - -
23/08:30am 25.5 E 7 8 1015.4 - - - - - - - - -
23/08:00am 25.1 ENE 9 10 1015.1 - - - - - - - - -
23/07:30am 24.8 E 8 9 1014.8 - - - - - - - - -
23/07:00am 25.0 E 8 9 1014.6 - - - - - - - - -
23/06:30am 24.8 SE 8 9 1014.2 - - - - - - - - -
23/06:00am 24.7 SE 8 9 1013.9 - - - - - - - - -
23/05:30am 24.8 SSW 8 10 1013.6 - - - - - - - - -
23/05:00am 24.6 SSW 10 11 1013.5 - - - - - - - - -
23/04:30am 24.5 S 10 11 1013.1 - - - - - - - - -
23/04:00am 24.7 S 11 13 1013.3 - - - - - - - - -
23/03:30am 24.5 SSW 11 12 1013.6 - - - - - - - - -
23/03:00am 24.3 S 13 14 1013.6 - - - - - - - - -
23/02:30am 24.4 S 13 15 1013.6 - - - - - - - - -
23/02:00am 24.7 S 13 15 1013.6 - - - - - - - - -
23/01:30am 24.5 SSW 12 13 1013.6 - - - - - - - - -
23/01:00am 24.7 SSW 13 13 1013.7 - - - - - - - - -
23/12:30am 24.5 SSW 11 12 1014.1 - - - - - - - - -
23/12:00am 24.7 SSW 11 12 1014.2 - - - - - - - - -
 
Date/Time
EST
Temp
°C
Wind Pressure Rain since
9am
mm
Weather Cloud Vis
km
Sea
Height
m
Swell
Dir  Spd
kts
Gust
kts
hPa Trend Height
m
Period
s
Dir
22/11:30pm 24.8 SSW 9 11 1014.6 - - - - - - - - -
22/11:00pm 24.7 SSW 8 9 1014.8 - - - - - - - - -
22/10:00pm 24.8 SSW 8 9 1014.9 - - - - - - - - -
22/09:00pm 24.6 SSW 8 - 1014.5 - - - - - - - - -
22/08:00pm 24.6 S 10 11 1014.5 - - - - - - - - -
22/07:00pm 24.7 S 11 - 1014.2 - - - - - - - - -
22/06:30pm 24.5 SSW 14 15 1013.8 - - - - - - - - -
22/06:00pm 24.5 S 13 - 1013.4 - - - - - - - - -
22/05:30pm 24.3 S 16 17 1013.0 - - - - - - - - -
22/05:00pm 24.2 S 15 17 1012.7 - - - - - - - - -

Other Formats:

Comma delimited format used in spreadsheet applications
http://www.bom.gov.au/fwo/IDQ60701/IDQ60701.94393.axf

JavaScript Object Notation format (JSON) in row-major order
http://www.bom.gov.au/fwo/IDQ60701/IDQ60701.94393.json